createdAt,value
2023-02-20T00:06:50.776Z,5.50
2023-02-20T00:18:15.954Z,4.50
2023-02-20T00:29:40.696Z,4.90
2023-02-20T00:41:06.103Z,5.30
2023-02-20T00:52:24.108Z,3.70
2023-02-20T01:03:48.987Z,3.80
2023-02-20T01:15:06.555Z,4.20
2023-02-20T01:26:31.401Z,4.10
2023-02-20T01:37:55.249Z,3.60
2023-02-20T01:49:20.602Z,3.70
2023-02-20T02:00:40.916Z,3.40
2023-02-20T02:12:06.273Z,3.20
2023-02-20T02:23:49.402Z,3.40
2023-02-20T02:35:16.416Z,3.20
2023-02-20T02:46:50.248Z,3.00
2023-02-20T02:58:27.157Z,3.40
2023-02-20T03:10:00.302Z,3.10
2023-02-20T03:21:24.992Z,4.00
2023-02-20T03:32:48.466Z,3.10
2023-02-20T03:44:13.213Z,3.30
2023-02-20T03:55:31.383Z,3.60
2023-02-20T04:06:53.436Z,3.40
2023-02-20T04:18:12.172Z,4.50
2023-02-20T04:29:37.016Z,4.10
2023-02-20T04:41:01.817Z,3.80
2023-02-20T04:52:27.427Z,3.30
2023-02-20T05:03:38.231Z,4.10
2023-02-20T05:15:03.150Z,4.10
2023-02-20T05:26:28.964Z,5.10
2023-02-20T05:37:54.031Z,5.30
2023-02-20T05:49:18.966Z,5.10
2023-02-20T06:00:33.935Z,5.70
2023-02-20T06:12:00.168Z,5.70
2023-02-20T06:23:15.982Z,4.20
2023-02-20T06:34:33.838Z,4.70
2023-02-20T06:45:51.402Z,4.80
2023-02-20T06:56:54.928Z,4.20
2023-02-20T07:08:19.942Z,4.20
2023-02-20T07:19:43.399Z,3.90
2023-02-20T07:31:05.598Z,3.40
2023-02-20T07:42:30.498Z,4.00
2023-02-20T07:53:31.320Z,4.40
2023-02-20T08:04:56.317Z,3.10
2023-02-20T08:16:05.166Z,2.90
2023-02-20T08:27:16.045Z,3.20
2023-02-20T08:38:31.598Z,2.60
2023-02-20T08:49:36.597Z,5.00
2023-02-20T09:01:01.792Z,3.20
2023-02-20T09:12:27.019Z,2.80
2023-02-20T09:23:38.678Z,2.40
2023-02-20T09:34:35.136Z,2.60
2023-02-20T09:46:00.598Z,2.40
2023-02-20T09:57:18.469Z,2.00
2023-02-20T10:08:40.282Z,2.40
2023-02-20T10:20:19.734Z,2.40
2023-02-20T10:31:36.384Z,3.50
2023-02-20T10:43:04.248Z,3.80
2023-02-20T10:54:27.888Z,4.70
2023-02-20T11:05:49.890Z,3.30
2023-02-20T11:17:13.294Z,3.80
2023-02-20T11:28:28.982Z,3.30
2023-02-20T11:40:02.814Z,2.80
2023-02-20T11:51:30.157Z,2.30
2023-02-20T12:02:45.074Z,4.10
2023-02-20T12:14:11.248Z,2.80
2023-02-20T12:25:35.124Z,2.10
2023-02-20T12:37:02.987Z,2.70
2023-02-20T12:48:08.763Z,2.20
2023-02-20T12:59:48.932Z,3.50
2023-02-20T13:11:40.314Z,3.10
2023-02-20T13:22:55.032Z,3.00
2023-02-20T13:34:19.574Z,3.30
2023-02-20T13:45:44.809Z,3.40
2023-02-20T13:57:21.717Z,3.30
2023-02-20T14:08:46.300Z,3.80
2023-02-20T14:20:14.750Z,3.90
2023-02-20T14:31:39.969Z,3.60
2023-02-20T14:43:05.257Z,3.60
2023-02-20T14:54:13.076Z,5.70
2023-02-20T15:05:43.621Z,5.80
2023-02-20T15:16:59.953Z,5.80
2023-02-20T15:28:08.198Z,6.70
2023-02-20T15:39:13.103Z,4.60
2023-02-20T15:50:38.668Z,7.90
2023-02-20T16:01:55.137Z,8.10
2023-02-20T16:13:20.417Z,9.50
2023-02-20T16:24:27.142Z,9.30
2023-02-20T16:35:55.452Z,14.70
2023-02-20T16:47:20.568Z,13.20
2023-02-20T16:58:46.830Z,7.10
2023-02-20T17:09:57.600Z,9.90
2023-02-20T17:20:38.663Z,7.00
2023-02-20T17:31:47.308Z,6.50
2023-02-20T17:43:12.946Z,6.10
2023-02-20T17:54:22.529Z,9.50
2023-02-20T18:04:55.256Z,10.40
2023-02-20T18:37:37.430Z,6.40
2023-02-20T19:36:45.525Z,3.60
2023-02-20T19:47:00.159Z,3.30
2023-02-20T19:58:43.528Z,3.40
2023-02-20T20:09:13.831Z,3.50
2023-02-20T20:19:23.182Z,3.20
2023-02-20T20:29:32.371Z,2.80
2023-02-20T20:39:40.171Z,3.30
2023-02-20T20:49:46.266Z,3.10
2023-02-20T20:59:52.637Z,3.50
2023-02-20T21:10:00.510Z,3.40
2023-02-20T21:20:08.850Z,3.40
2023-02-20T21:30:13.441Z,2.60
2023-02-20T21:40:22.650Z,2.70
2023-02-20T21:50:27.046Z,2.60
2023-02-20T22:00:30.801Z,2.40
2023-02-20T22:10:53.030Z,2.20
2023-02-20T22:21:15.623Z,2.10
2023-02-20T22:31:37.836Z,2.60
2023-02-20T22:41:59.994Z,2.00
2023-02-20T22:52:22.018Z,2.10
2023-02-20T23:02:45.190Z,2.10
2023-02-20T23:13:09.497Z,1.60
2023-02-20T23:23:32.380Z,2.00
2023-02-20T23:33:54.941Z,2.00
2023-02-20T23:44:17.320Z,1.90
2023-02-20T23:54:40.403Z,2.10
